sensor_id;sensor_type;location;lat;lon;timestamp;P1;durP1;ratioP1;P2;durP2;ratioP2
57615;SDS011;43816;52.054;-9.494;2023-03-01T00:00:02;4.33;;;4.03;;
57615;SDS011;43816;52.054;-9.494;2023-03-01T00:00:13;4.50;;;4.20;;
57615;SDS011;43816;52.054;-9.494;2023-03-01T00:00:24;4.27;;;3.97;;
57615;SDS011;43816;52.054;-9.494;2023-03-01T00:00:34;4.10;;;3.80;;
57615;SDS011;43816;52.054;-9.494;2023-03-01T00:00:44;4.20;;;3.90;;
57615;SDS011;43816;52.054;-9.494;2023-03-01T00:01:00;4.33;;;4.03;;
57615;SDS011;43816;52.054;-9.494;2023-03-01T00:01:13;4.30;;;4.00;;
57615;SDS011;43816;52.054;-9.494;2023-03-01T00:01:27;4.40;;;4.10;;
57615;SDS011;43816;52.054;-9.494;2023-03-01T00:01:39;4.43;;;4.13;;
57615;SDS011;43816;52.054;-9.494;2023-03-01T00:01:50;4.40;;;4.10;;
57615;SDS011;43816;52.054;-9.494;2023-03-01T00:02:00;4.30;;;4.00;;
57615;SDS011;43816;52.054;-9.494;2023-03-01T00:02:10;4.40;;;4.10;;
57615;SDS011;43816;52.054;-9.494;2023-03-01T00:02:21;4.43;;;4.13;;
57615;SDS011;43816;52.054;-9.494;2023-03-01T00:02:31;4.40;;;4.10;;
57615;SDS011;43816;52.054;-9.494;2023-03-01T00:02:41;4.23;;;3.93;;
57615;SDS011;43816;52.054;-9.494;2023-03-01T00:02:52;4.20;;;3.90;;
57615;SDS011;43816;52.054;-9.494;2023-03-01T00:03:02;4.40;;;4.10;;
57615;SDS011;43816;52.054;-9.494;2023-03-01T00:03:12;4.30;;;4.00;;
57615;SDS011;43816;52.054;-9.494;2023-03-01T00:03:22;4.27;;;3.97;;
57615;SDS011;43816;52.054;-9.494;2023-03-01T00:03:33;4.30;;;4.00;;
57615;SDS011;43816;52.054;-9.494;2023-03-01T00:03:44;4.65;;;4.32;;
57615;SDS011;43816;52.054;-9.494;2023-03-01T00:03:55;4.82;;;4.50;;
57615;SDS011;43816;52.054;-9.494;2023-03-01T00:04:07;4.90;;;4.50;;
57615;SDS011;43816;52.054;-9.494;2023-03-01T00:04:17;4.80;;;4.40;;
57615;SDS011;43816;52.054;-9.494;2023-03-01T00:04:27;4.60;;;4.30;;
57615;SDS011;43816;52.054;-9.494;2023-03-01T00:04:38;4.40;;;4.10;;
57615;SDS011;43816;52.054;-9.494;2023-03-01T00:04:48;4.37;;;4.07;;
57615;SDS011;43816;52.054;-9.494;2023-03-01T00:04:58;4.50;;;4.20;;
57615;SDS011;43816;52.054;-9.494;2023-03-01T00:05:09;4.50;;;4.20;;
57615;SDS011;43816;52.054;-9.494;2023-03-01T00:05:19;4.57;;;4.27;;
57615;SDS011;43816;52.054;-9.494;2023-03-01T00:05:29;4.73;;;4.43;;
57615;SDS011;43816;52.054;-9.494;2023-03-01T00:05:43;4.85;;;4.50;;
57615;SDS011;43816;52.054;-9.494;2023-03-01T00:05:55;4.90;;;4.50;;
57615;SDS011;43816;52.054;-9.494;2023-03-01T00:06:05;4.80;;;4.40;;
57615;SDS011;43816;52.054;-9.494;2023-03-01T00:06:16;4.67;;;4.37;;
57615;SDS011;43816;52.054;-9.494;2023-03-01T00:06:27;4.50;;;4.20;;
57615;SDS011;43816;52.054;-9.494;2023-03-01T00:06:37;4.60;;;4.30;;
57615;SDS011;43816;52.054;-9.494;2023-03-01T00:06:48;4.50;;;4.20;;
57615;SDS011;43816;52.054;-9.494;2023-03-01T00:06:58;4.55;;;4.25;;
57615;SDS011;43816;52.054;-9.494;2023-03-01T00:07:08;4.50;;;4.20;;
57615;SDS011;43816;52.054;-9.494;2023-03-01T00:07:19;4.60;;;4.30;;
57615;SDS011;43816;52.054;-9.494;2023-03-01T00:07:29;4.45;;;4.10;;
57615;SDS011;43816;52.054;-9.494;2023-03-01T00:07:39;4.47;;;4.07;;
57615;SDS011;43816;52.054;-9.494;2023-03-01T00:07:52;4.40;;;4.00;;
57615;SDS011;43816;52.054;-9.494;2023-03-01T00:08:03;4.53;;;4.13;;
57615;SDS011;43816;52.054;-9.494;2023-03-01T00:08:13;4.40;;;4.10;;
57615;SDS011;43816;52.054;-9.494;2023-03-01T00:08:24;4.65;;;4.25;;
57615;SDS011;43816;52.054;-9.494;2023-03-01T00:08:35;4.53;;;4.13;;
57615;SDS011;43816;52.054;-9.494;2023-03-01T00:08:46;4.68;;;4.30;;
57615;SDS011;43816;52.054;-9.494;2023-03-01T00:08:57;4.70;;;4.40;;
57615;SDS011;43816;52.054;-9.494;2023-03-01T00:09:07;4.67;;;4.37;;
57615;SDS011;43816;52.054;-9.494;2023-03-01T00:09:17;4.50;;;4.20;;
57615;SDS011;43816;52.054;-9.494;2023-03-01T00:09:27;4.53;;;4.22;;
57615;SDS011;43816;52.054;-9.494;2023-03-01T00:09:38;4.67;;;4.37;;
57615;SDS011;43816;52.054;-9.494;2023-03-01T00:09:48;4.60;;;4.30;;
57615;SDS011;43816;52.054;-9.494;2023-03-01T00:09:58;4.50;;;4.20;;
57615;SDS011;43816;52.054;-9.494;2023-03-01T00:10:09;4.53;;;4.22;;
57615;SDS011;43816;52.054;-9.494;2023-03-01T00:10:20;4.60;;;4.30;;
57615;SDS011;43816;52.054;-9.494;2023-03-01T00:10:30;4.70;;;4.40;;
57615;SDS011;43816;52.054;-9.494;2023-03-01T00:10:40;4.57;;;4.28;;
57615;SDS011;43816;52.054;-9.494;2023-03-01T00:11:01;4.50;;;4.20;;
57615;SDS011;43816;52.054;-9.494;2023-03-01T00:11:17;4.50;;;4.20;;
57615;SDS011;43816;52.054;-9.494;2023-03-01T00:11:30;4.75;;;4.35;;
57615;SDS011;43816;52.054;-9.494;2023-03-01T00:11:42;4.63;;;4.32;;
57615;SDS011;43816;52.054;-9.494;2023-03-01T00:11:52;4.63;;;4.32;;
57615;SDS011;43816;52.054;-9.494;2023-03-01T00:12:03;4.50;;;4.20;;
57615;SDS011;43816;52.054;-9.494;2023-03-01T00:12:13;4.40;;;4.10;;
57615;SDS011;43816;52.054;-9.494;2023-03-01T00:12:23;4.50;;;4.20;;
57615;SDS011;43816;52.054;-9.494;2023-03-01T00:12:34;4.63;;;4.33;;
57615;SDS011;43816;52.054;-9.494;2023-03-01T00:12:44;4.97;;;4.60;;
57615;SDS011;43816;52.054;-9.494;2023-03-01T00:12:54;4.87;;;4.47;;
57615;SDS011;43816;52.054;-9.494;2023-03-01T00:13:05;4.87;;;4.47;;
57615;SDS011;43816;52.054;-9.494;2023-03-01T00:13:15;4.57;;;4.25;;
57615;SDS011;43816;52.054;-9.494;2023-03-01T00:13:25;4.57;;;4.27;;
57615;SDS011;43816;52.054;-9.494;2023-03-01T00:13:36;4.50;;;4.20;;
57615;SDS011;43816;52.054;-9.494;2023-03-01T00:13:47;4.60;;;4.30;;
57615;SDS011;43816;52.054;-9.494;2023-03-01T00:13:59;4.75;;;4.45;;
57615;SDS011;43816;52.054;-9.494;2023-03-01T00:14:11;4.72;;;4.43;;
57615;SDS011;43816;52.054;-9.494;2023-03-01T00:14:22;4.68;;;4.38;;
57615;SDS011;43816;52.054;-9.494;2023-03-01T00:14:32;4.50;;;4.20;;
57615;SDS011;43816;52.054;-9.494;2023-03-01T00:14:42;4.53;;;4.23;;
57615;SDS011;43816;52.054;-9.494;2023-03-01T00:14:53;4.70;;;4.38;;
57615;SDS011;43816;52.054;-9.494;2023-03-01T00:15:03;4.93;;;4.53;;
57615;SDS011;43816;52.054;-9.494;2023-03-01T00:15:13;4.88;;;4.57;;
57615;SDS011;43816;52.054;-9.494;2023-03-01T00:15:24;4.83;;;4.53;;
57615;SDS011;43816;52.054;-9.494;2023-03-01T00:15:37;5.00;;;4.60;;
57615;SDS011;43816;52.054;-9.494;2023-03-01T00:15:48;5.07;;;4.68;;
57615;SDS011;43816;52.054;-9.494;2023-03-01T00:15:58;5.15;;;4.78;;
57615;SDS011;43816;52.054;-9.494;2023-03-01T00:16:11;5.13;;;4.83;;
57615;SDS011;43816;52.054;-9.494;2023-03-01T00:16:25;5.13;;;4.82;;
57615;SDS011;43816;52.054;-9.494;2023-03-01T00:16:40;4.90;;;4.60;;
57615;SDS011;43816;52.054;-9.494;2023-03-01T00:16:52;4.70;;;4.40;;
57615;SDS011;43816;52.054;-9.494;2023-03-01T00:17:02;4.70;;;4.40;;
57615;SDS011;43816;52.054;-9.494;2023-03-01T00:17:13;4.90;;;4.60;;
57615;SDS011;43816;52.054;-9.494;2023-03-01T00:17:23;4.90;;;4.60;;
57615;SDS011;43816;52.054;-9.494;2023-03-01T00:17:33;4.80;;;4.50;;
57615;SDS011;43816;52.054;-9.494;2023-03-01T00:17:44;4.80;;;4.50;;
57615;SDS011;43816;52.054;-9.494;2023-03-01T00:17:54;4.72;;;4.43;;
57615;SDS011;43816;52.054;-9.494;2023-03-01T00:18:04;4.90;;;4.60;;
57615;SDS011;43816;52.054;-9.494;2023-03-01T00:18:14;4.93;;;4.63;;
57615;SDS011;43816;52.054;-9.494;2023-03-01T00:18:25;5.30;;;4.90;;
57615;SDS011;43816;52.054;-9.494;2023-03-01T00:18:35;5.30;;;4.90;;
57615;SDS011;43816;52.054;-9.494;2023-03-01T00:18:45;5.20;;;4.80;;
57615;SDS011;43816;52.054;-9.494;2023-03-01T00:18:56;5.00;;;4.70;;
57615;SDS011;43816;52.054;-9.494;2023-03-01T00:19:08;4.85;;;4.55;;
57615;SDS011;43816;52.054;-9.494;2023-03-01T00:19:22;4.90;;;4.60;;
57615;SDS011;43816;52.054;-9.494;2023-03-01T00:19:32;5.03;;;4.63;;
57615;SDS011;43816;52.054;-9.494;2023-03-01T00:19:42;5.00;;;4.60;;
57615;SDS011;43816;52.054;-9.494;2023-03-01T00:19:53;4.88;;;4.50;;
57615;SDS011;43816;52.054;-9.494;2023-03-01T00:20:03;5.00;;;4.60;;
57615;SDS011;43816;52.054;-9.494;2023-03-01T00:20:14;4.80;;;4.50;;
57615;SDS011;43816;52.054;-9.494;2023-03-01T00:20:24;4.90;;;4.50;;
57615;SDS011;43816;52.054;-9.494;2023-03-01T00:20:34;4.90;;;4.50;;
57615;SDS011;43816;52.054;-9.494;2023-03-01T00:20:54;5.00;;;4.60;;
57615;SDS011;43816;52.054;-9.494;2023-03-01T00:21:05;4.72;;;4.43;;
57615;SDS011;43816;52.054;-9.494;2023-03-01T00:21:16;4.80;;;4.50;;
57615;SDS011;43816;52.054;-9.494;2023-03-01T00:21:27;4.78;;;4.47;;
57615;SDS011;43816;52.054;-9.494;2023-03-01T00:21:38;4.88;;;4.57;;
57615;SDS011;43816;52.054;-9.494;2023-03-01T00:21:48;4.68;;;4.38;;
57615;SDS011;43816;52.054;-9.494;2023-03-01T00:21:59;4.73;;;4.43;;
57615;SDS011;43816;52.054;-9.494;2023-03-01T00:22:09;4.83;;;4.53;;
57615;SDS011;43816;52.054;-9.494;2023-03-01T00:22:19;4.88;;;4.57;;
57615;SDS011;43816;52.054;-9.494;2023-03-01T00:22:29;5.03;;;4.67;;
57615;SDS011;43816;52.054;-9.494;2023-03-01T00:22:40;4.83;;;4.43;;
57615;SDS011;43816;52.054;-9.494;2023-03-01T00:22:50;4.97;;;4.57;;
57615;SDS011;43816;52.054;-9.494;2023-03-01T00:23:00;4.80;;;4.40;;
57615;SDS011;43816;52.054;-9.494;2023-03-01T00:23:11;4.80;;;4.40;;
57615;SDS011;43816;52.054;-9.494;2023-03-01T00:23:21;4.50;;;4.20;;
57615;SDS011;43816;52.054;-9.494;2023-03-01T00:23:33;4.45;;;4.15;;
57615;SDS011;43816;52.054;-9.494;2023-03-01T00:23:44;4.68;;;4.32;;
57615;SDS011;43816;52.054;-9.494;2023-03-01T00:23:55;4.88;;;4.50;;
57615;SDS011;43816;52.054;-9.494;2023-03-01T00:24:05;4.83;;;4.50;;
57615;SDS011;43816;52.054;-9.494;2023-03-01T00:24:16;4.53;;;4.22;;
57615;SDS011;43816;52.054;-9.494;2023-03-01T00:24:26;4.47;;;4.17;;
57615;SDS011;43816;52.054;-9.494;2023-03-01T00:24:36;4.40;;;4.10;;
57615;SDS011;43816;52.054;-9.494;2023-03-01T00:24:47;4.45;;;4.15;;
57615;SDS011;43816;52.054;-9.494;2023-03-01T00:24:57;4.60;;;4.30;;
57615;SDS011;43816;52.054;-9.494;2023-03-01T00:25:07;4.70;;;4.40;;
57615;SDS011;43816;52.054;-9.494;2023-03-01T00:25:18;4.75;;;4.43;;
57615;SDS011;43816;52.054;-9.494;2023-03-01T00:25:28;4.53;;;4.23;;
57615;SDS011;43816;52.054;-9.494;2023-03-01T00:25:42;4.40;;;4.10;;
57615;SDS011;43816;52.054;-9.494;2023-03-01T00:25:52;4.50;;;4.20;;
57615;SDS011;43816;52.054;-9.494;2023-03-01T00:26:05;4.57;;;4.28;;
57615;SDS011;43816;52.054;-9.494;2023-03-01T00:26:18;4.60;;;4.30;;
57615;SDS011;43816;52.054;-9.494;2023-03-01T00:26:29;4.53;;;4.22;;
57615;SDS011;43816;52.054;-9.494;2023-03-01T00:26:40;4.55;;;4.25;;
57615;SDS011;43816;52.054;-9.494;2023-03-01T00:26:52;4.60;;;4.30;;
57615;SDS011;43816;52.054;-9.494;2023-03-01T00:27:03;4.53;;;4.22;;
57615;SDS011;43816;52.054;-9.494;2023-03-01T00:27:13;4.40;;;4.10;;
57615;SDS011;43816;52.054;-9.494;2023-03-01T00:27:24;4.50;;;4.20;;
57615;SDS011;43816;52.054;-9.494;2023-03-01T00:27:34;4.78;;;4.38;;
57615;SDS011;43816;52.054;-9.494;2023-03-01T00:27:44;4.70;;;4.40;;
57615;SDS011;43816;52.054;-9.494;2023-03-01T00:27:56;4.70;;;4.40;;
57615;SDS011;43816;52.054;-9.494;2023-03-01T00:28:06;4.60;;;4.30;;
57615;SDS011;43816;52.054;-9.494;2023-03-01T00:28:17;4.50;;;4.20;;
57615;SDS011;43816;52.054;-9.494;2023-03-01T00:28:28;4.38;;;4.08;;
57615;SDS011;43816;52.054;-9.494;2023-03-01T00:28:38;4.57;;;4.27;;
57615;SDS011;43816;52.054;-9.494;2023-03-01T00:28:48;4.80;;;4.50;;
57615;SDS011;43816;52.054;-9.494;2023-03-01T00:28:59;4.88;;;4.57;;
57615;SDS011;43816;52.054;-9.494;2023-03-01T00:29:10;4.78;;;4.47;;
57615;SDS011;43816;52.054;-9.494;2023-03-01T00:29:21;4.67;;;4.37;;
57615;SDS011;43816;52.054;-9.494;2023-03-01T00:29:32;4.65;;;4.35;;
57615;SDS011;43816;52.054;-9.494;2023-03-01T00:29:42;4.57;;;4.27;;
57615;SDS011;43816;52.054;-9.494;2023-03-01T00:29:52;4.70;;;4.40;;
57615;SDS011;43816;52.054;-9.494;2023-03-01T00:30:03;4.83;;;4.53;;
57615;SDS011;43816;52.054;-9.494;2023-03-01T00:30:14;4.97;;;4.68;;
57615;SDS011;43816;52.054;-9.494;2023-03-01T00:30:24;4.87;;;4.57;;
57615;SDS011;43816;52.054;-9.494;2023-03-01T00:30:34;4.70;;;4.40;;
57615;SDS011;43816;52.054;-9.494;2023-03-01T00:30:45;4.60;;;4.30;;
57615;SDS011;43816;52.054;-9.494;2023-03-01T00:30:56;4.40;;;4.10;;
57615;SDS011;43816;52.054;-9.494;2023-03-01T00:31:10;4.63;;;4.33;;
57615;SDS011;43816;52.054;-9.494;2023-03-01T00:31:24;4.85;;;4.45;;
57615;SDS011;43816;52.054;-9.494;2023-03-01T00:31:36;4.80;;;4.40;;
57615;SDS011;43816;52.054;-9.494;2023-03-01T00:31:46;5.00;;;4.60;;
57615;SDS011;43816;52.054;-9.494;2023-03-01T00:31:56;5.00;;;4.70;;
57615;SDS011;43816;52.054;-9.494;2023-03-01T00:32:07;5.20;;;4.80;;
57615;SDS011;43816;52.054;-9.494;2023-03-01T00:32:17;5.30;;;4.90;;
57615;SDS011;43816;52.054;-9.494;2023-03-01T00:32:27;5.30;;;4.90;;
57615;SDS011;43816;52.054;-9.494;2023-03-01T00:32:38;5.20;;;4.90;;
57615;SDS011;43816;52.054;-9.494;2023-03-01T00:32:48;5.10;;;4.80;;
57615;SDS011;43816;52.054;-9.494;2023-03-01T00:32:58;5.30;;;4.90;;
57615;SDS011;43816;52.054;-9.494;2023-03-01T00:33:08;5.20;;;4.90;;
57615;SDS011;43816;52.054;-9.494;2023-03-01T00:33:19;5.20;;;4.90;;
57615;SDS011;43816;52.054;-9.494;2023-03-01T00:33:29;5.10;;;4.80;;
57615;SDS011;43816;52.054;-9.494;2023-03-01T00:33:39;5.10;;;4.80;;
57615;SDS011;43816;52.054;-9.494;2023-03-01T00:33:54;5.10;;;4.80;;
57615;SDS011;43816;52.054;-9.494;2023-03-01T00:34:12;5.18;;;4.78;;
57615;SDS011;43816;52.054;-9.494;2023-03-01T00:34:22;5.20;;;4.83;;
57615;SDS011;43816;52.054;-9.494;2023-03-01T00:34:32;5.20;;;4.90;;
57615;SDS011;43816;52.054;-9.494;2023-03-01T00:34:42;5.10;;;4.80;;
57615;SDS011;43816;52.054;-9.494;2023-03-01T00:34:53;4.95;;;4.65;;
57615;SDS011;43816;52.054;-9.494;2023-03-01T00:35:03;4.73;;;4.43;;
57615;SDS011;43816;52.054;-9.494;2023-03-01T00:35:13;4.70;;;4.40;;
57615;SDS011;43816;52.054;-9.494;2023-03-01T00:35:24;4.73;;;4.43;;
57615;SDS011;43816;52.054;-9.494;2023-03-01T00:35:34;4.93;;;4.63;;
57615;SDS011;43816;52.054;-9.494;2023-03-01T00:35:45;5.00;;;4.68;;
57615;SDS011;43816;52.054;-9.494;2023-03-01T00:35:57;5.00;;;4.60;;
57615;SDS011;43816;52.054;-9.494;2023-03-01T00:36:08;4.80;;;4.50;;
57615;SDS011;43816;52.054;-9.494;2023-03-01T00:36:20;4.93;;;4.63;;
57615;SDS011;43816;52.054;-9.494;2023-03-01T00:36:32;4.90;;;4.60;;
57615;SDS011;43816;52.054;-9.494;2023-03-01T00:36:44;4.93;;;4.63;;
57615;SDS011;43816;52.054;-9.494;2023-03-01T00:36:54;4.88;;;4.57;;
57615;SDS011;43816;52.054;-9.494;2023-03-01T00:37:05;4.67;;;4.37;;
57615;SDS011;43816;52.054;-9.494;2023-03-01T00:37:15;4.20;;;4.00;;
57615;SDS011;43816;52.054;-9.494;2023-03-01T00:37:25;4.47;;;4.17;;
57615;SDS011;43816;52.054;-9.494;2023-03-01T00:37:36;4.60;;;4.30;;
57615;SDS011;43816;52.054;-9.494;2023-03-01T00:37:46;4.80;;;4.40;;
57615;SDS011;43816;52.054;-9.494;2023-03-01T00:37:56;4.70;;;4.40;;
57615;SDS011;43816;52.054;-9.494;2023-03-01T00:38:07;4.82;;;4.53;;
57615;SDS011;43816;52.054;-9.494;2023-03-01T00:38:18;4.90;;;4.60;;
57615;SDS011;43816;52.054;-9.494;2023-03-01T00:38:28;4.80;;;4.50;;
57615;SDS011;43816;52.054;-9.494;2023-03-01T00:38:40;4.70;;;4.40;;
57615;SDS011;43816;52.054;-9.494;2023-03-01T00:38:52;4.70;;;4.40;;
57615;SDS011;43816;52.054;-9.494;2023-03-01T00:39:04;4.53;;;4.22;;
57615;SDS011;43816;52.054;-9.494;2023-03-01T00:39:15;4.40;;;4.10;;
57615;SDS011;43816;52.054;-9.494;2023-03-01T00:39:26;4.60;;;4.30;;
57615;SDS011;43816;52.054;-9.494;2023-03-01T00:39:36;4.70;;;4.40;;
57615;SDS011;43816;52.054;-9.494;2023-03-01T00:39:47;4.60;;;4.30;;
57615;SDS011;43816;52.054;-9.494;2023-03-01T00:39:57;4.53;;;4.22;;
57615;SDS011;43816;52.054;-9.494;2023-03-01T00:40:08;4.60;;;4.30;;
57615;SDS011;43816;52.054;-9.494;2023-03-01T00:40:18;4.60;;;4.30;;
57615;SDS011;43816;52.054;-9.494;2023-03-01T00:40:29;4.50;;;4.20;;
57615;SDS011;43816;52.054;-9.494;2023-03-01T00:40:42;4.35;;;4.05;;
57615;SDS011;43816;52.054;-9.494;2023-03-01T00:40:52;4.40;;;4.10;;
57615;SDS011;43816;52.054;-9.494;2023-03-01T00:41:03;4.40;;;4.10;;
57615;SDS011;43816;52.054;-9.494;2023-03-01T00:41:16;4.50;;;4.20;;
57615;SDS011;43816;52.054;-9.494;2023-03-01T00:41:27;4.47;;;4.15;;
57615;SDS011;43816;52.054;-9.494;2023-03-01T00:41:37;4.72;;;4.32;;
57615;SDS011;43816;52.054;-9.494;2023-03-01T00:41:48;4.67;;;4.23;;
57615;SDS011;43816;52.054;-9.494;2023-03-01T00:41:58;4.68;;;4.28;;
57615;SDS011;43816;52.054;-9.494;2023-03-01T00:42:09;4.47;;;4.17;;
57615;SDS011;43816;52.054;-9.494;2023-03-01T00:42:19;4.47;;;4.17;;
57615;SDS011;43816;52.054;-9.494;2023-03-01T00:42:29;4.35;;;4.05;;
57615;SDS011;43816;52.054;-9.494;2023-03-01T00:42:39;4.50;;;4.20;;
57615;SDS011;43816;52.054;-9.494;2023-03-01T00:42:50;4.83;;;4.43;;
57615;SDS011;43816;52.054;-9.494;2023-03-01T00:43:00;5.10;;;4.70;;
57615;SDS011;43816;52.054;-9.494;2023-03-01T00:43:11;5.00;;;4.70;;
57615;SDS011;43816;52.054;-9.494;2023-03-01T00:43:21;4.90;;;4.60;;
57615;SDS011;43816;52.054;-9.494;2023-03-01T00:43:31;4.80;;;4.50;;
57615;SDS011;43816;52.054;-9.494;2023-03-01T00:43:42;4.80;;;4.50;;
57615;SDS011;43816;52.054;-9.494;2023-03-01T00:43:53;5.22;;;4.85;;
57615;SDS011;43816;52.054;-9.494;2023-03-01T00:44:04;5.37;;;4.97;;
57615;SDS011;43816;52.054;-9.494;2023-03-01T00:44:14;5.35;;;4.95;;
57615;SDS011;43816;52.054;-9.494;2023-03-01T00:44:24;5.27;;;4.87;;
57615;SDS011;43816;52.054;-9.494;2023-03-01T00:44:34;5.23;;;4.90;;
57615;SDS011;43816;52.054;-9.494;2023-03-01T00:44:45;5.47;;;5.07;;
57615;SDS011;43816;52.054;-9.494;2023-03-01T00:44:55;5.50;;;5.00;;
57615;SDS011;43816;52.054;-9.494;2023-03-01T00:45:05;5.40;;;4.90;;
57615;SDS011;43816;52.054;-9.494;2023-03-01T00:45:16;5.20;;;4.80;;
57615;SDS011;43816;52.054;-9.494;2023-03-01T00:45:27;5.10;;;4.70;;
57615;SDS011;43816;52.054;-9.494;2023-03-01T00:45:38;5.05;;;4.70;;
57615;SDS011;43816;52.054;-9.494;2023-03-01T00:45:48;4.80;;;4.47;;
57615;SDS011;43816;52.054;-9.494;2023-03-01T00:46:00;4.80;;;4.50;;
57615;SDS011;43816;52.054;-9.494;2023-03-01T00:46:12;4.72;;;4.43;;
57615;SDS011;43816;52.054;-9.494;2023-03-01T00:46:25;4.90;;;4.60;;
57615;SDS011;43816;52.054;-9.494;2023-03-01T00:46:36;4.80;;;4.50;;
57615;SDS011;43816;52.054;-9.494;2023-03-01T00:46:47;4.72;;;4.43;;
57615;SDS011;43816;52.054;-9.494;2023-03-01T00:46:57;4.65;;;4.35;;
57615;SDS011;43816;52.054;-9.494;2023-03-01T00:47:07;4.80;;;4.50;;
57615;SDS011;43816;52.054;-9.494;2023-03-01T00:47:18;4.80;;;4.50;;
57615;SDS011;43816;52.054;-9.494;2023-03-01T00:47:28;4.60;;;4.30;;
57615;SDS011;43816;52.054;-9.494;2023-03-01T00:47:39;4.50;;;4.20;;
57615;SDS011;43816;52.054;-9.494;2023-03-01T00:47:49;4.60;;;4.30;;
57615;SDS011;43816;52.054;-9.494;2023-03-01T00:48:01;4.68;;;4.38;;
57615;SDS011;43816;52.054;-9.494;2023-03-01T00:48:11;4.70;;;4.40;;
57615;SDS011;43816;52.054;-9.494;2023-03-01T00:48:21;4.70;;;4.40;;
57615;SDS011;43816;52.054;-9.494;2023-03-01T00:48:32;4.50;;;4.20;;
57615;SDS011;43816;52.054;-9.494;2023-03-01T00:48:43;4.57;;;4.28;;
57615;SDS011;43816;52.054;-9.494;2023-03-01T00:48:53;4.47;;;4.18;;
57615;SDS011;43816;52.054;-9.494;2023-03-01T00:49:04;4.40;;;4.10;;
57615;SDS011;43816;52.054;-9.494;2023-03-01T00:49:14;4.50;;;4.20;;
57615;SDS011;43816;52.054;-9.494;2023-03-01T00:49:24;4.57;;;4.27;;
57615;SDS011;43816;52.054;-9.494;2023-03-01T00:49:35;4.70;;;4.40;;
57615;SDS011;43816;52.054;-9.494;2023-03-01T00:49:45;4.63;;;4.33;;
57615;SDS011;43816;52.054;-9.494;2023-03-01T00:49:55;4.60;;;4.30;;
57615;SDS011;43816;52.054;-9.494;2023-03-01T00:50:06;4.50;;;4.20;;
57615;SDS011;43816;52.054;-9.494;2023-03-01T00:50:16;4.53;;;4.23;;
57615;SDS011;43816;52.054;-9.494;2023-03-01T00:50:28;4.70;;;4.40;;
57615;SDS011;43816;52.054;-9.494;2023-03-01T00:50:39;4.90;;;4.60;;
57615;SDS011;43816;52.054;-9.494;2023-03-01T00:50:49;4.90;;;4.60;;
57615;SDS011;43816;52.054;-9.494;2023-03-01T00:51:10;4.73;;;4.43;;
57615;SDS011;43816;52.054;-9.494;2023-03-01T00:51:23;5.03;;;4.70;;
57615;SDS011;43816;52.054;-9.494;2023-03-01T00:51:35;5.25;;;4.85;;
57615;SDS011;43816;52.054;-9.494;2023-03-01T00:51:46;5.00;;;4.70;;
57615;SDS011;43816;52.054;-9.494;2023-03-01T00:51:56;5.07;;;4.77;;
57615;SDS011;43816;52.054;-9.494;2023-03-01T00:52:06;4.95;;;4.65;;
57615;SDS011;43816;52.054;-9.494;2023-03-01T00:52:16;5.00;;;4.70;;
57615;SDS011;43816;52.054;-9.494;2023-03-01T00:52:27;4.80;;;4.50;;
57615;SDS011;43816;52.054;-9.494;2023-03-01T00:52:37;4.70;;;4.40;;
57615;SDS011;43816;52.054;-9.494;2023-03-01T00:52:51;4.60;;;4.30;;
57615;SDS011;43816;52.054;-9.494;2023-03-01T00:53:03;5.00;;;4.70;;
57615;SDS011;43816;52.054;-9.494;2023-03-01T00:53:13;5.03;;;4.72;;
57615;SDS011;43816;52.054;-9.494;2023-03-01T00:53:23;5.07;;;4.77;;
57615;SDS011;43816;52.054;-9.494;2023-03-01T00:53:34;4.90;;;4.60;;
57615;SDS011;43816;52.054;-9.494;2023-03-01T00:53:45;4.82;;;4.53;;
57615;SDS011;43816;52.054;-9.494;2023-03-01T00:53:56;4.70;;;4.40;;
57615;SDS011;43816;52.054;-9.494;2023-03-01T00:54:09;4.78;;;4.43;;
57615;SDS011;43816;52.054;-9.494;2023-03-01T00:54:19;4.80;;;4.40;;
57615;SDS011;43816;52.054;-9.494;2023-03-01T00:54:29;4.80;;;4.50;;
57615;SDS011;43816;52.054;-9.494;2023-03-01T00:54:40;4.82;;;4.53;;
57615;SDS011;43816;52.054;-9.494;2023-03-01T00:54:51;4.80;;;4.50;;
57615;SDS011;43816;52.054;-9.494;2023-03-01T00:55:03;4.82;;;4.53;;
57615;SDS011;43816;52.054;-9.494;2023-03-01T00:55:14;4.60;;;4.30;;
57615;SDS011;43816;52.054;-9.494;2023-03-01T00:55:25;4.90;;;4.60;;
57615;SDS011;43816;52.054;-9.494;2023-03-01T00:55:35;5.00;;;4.70;;
57615;SDS011;43816;52.054;-9.494;2023-03-01T00:55:46;5.00;;;4.70;;
57615;SDS011;43816;52.054;-9.494;2023-03-01T00:55:56;4.80;;;4.50;;
57615;SDS011;43816;52.054;-9.494;2023-03-01T00:56:08;4.90;;;4.60;;
57615;SDS011;43816;52.054;-9.494;2023-03-01T00:56:20;5.15;;;4.75;;
57615;SDS011;43816;52.054;-9.494;2023-03-01T00:56:31;5.27;;;4.87;;
57615;SDS011;43816;52.054;-9.494;2023-03-01T00:56:42;4.97;;;4.57;;
57615;SDS011;43816;52.054;-9.494;2023-03-01T00:56:52;4.67;;;4.37;;
57615;SDS011;43816;52.054;-9.494;2023-03-01T00:57:02;4.55;;;4.25;;
57615;SDS011;43816;52.054;-9.494;2023-03-01T00:57:13;4.83;;;4.50;;
57615;SDS011;43816;52.054;-9.494;2023-03-01T00:57:23;5.20;;;4.80;;
57615;SDS011;43816;52.054;-9.494;2023-03-01T00:57:33;5.18;;;4.82;;
57615;SDS011;43816;52.054;-9.494;2023-03-01T00:57:44;5.03;;;4.73;;
57615;SDS011;43816;52.054;-9.494;2023-03-01T00:57:54;5.00;;;4.70;;
57615;SDS011;43816;52.054;-9.494;2023-03-01T00:58:04;5.10;;;4.80;;
57615;SDS011;43816;52.054;-9.494;2023-03-01T00:58:14;5.13;;;4.83;;
57615;SDS011;43816;52.054;-9.494;2023-03-01T00:58:25;5.23;;;4.93;;
57615;SDS011;43816;52.054;-9.494;2023-03-01T00:58:36;5.32;;;5.03;;
57615;SDS011;43816;52.054;-9.494;2023-03-01T00:58:47;5.40;;;5.10;;
57615;SDS011;43816;52.054;-9.494;2023-03-01T00:58:57;5.35;;;5.05;;
57615;SDS011;43816;52.054;-9.494;2023-03-01T00:59:07;5.40;;;5.03;;
57615;SDS011;43816;52.054;-9.494;2023-03-01T00:59:18;5.35;;;5.00;;
57615;SDS011;43816;52.054;-9.494;2023-03-01T00:59:28;5.27;;;4.97;;
57615;SDS011;43816;52.054;-9.494;2023-03-01T00:59:38;5.37;;;4.97;;
57615;SDS011;43816;52.054;-9.494;2023-03-01T00:59:49;5.32;;;4.93;;
57615;SDS011;43816;52.054;-9.494;2023-03-01T00:59:59;5.50;;;5.10;;
57615;SDS011;43816;52.054;-9.494;2023-03-01T01:00:10;5.28;;;4.97;;
57615;SDS011;43816;52.054;-9.494;2023-03-01T01:00:20;5.30;;;5.00;;
57615;SDS011;43816;52.054;-9.494;2023-03-01T01:00:31;5.47;;;5.17;;
57615;SDS011;43816;52.054;-9.494;2023-03-01T01:00:41;5.80;;;5.40;;
57615;SDS011;43816;52.054;-9.494;2023-03-01T01:00:51;5.80;;;5.40;;
57615;SDS011;43816;52.054;-9.494;2023-03-01T01:01:09;5.67;;;5.27;;
57615;SDS011;43816;52.054;-9.494;2023-03-01T01:01:21;5.47;;;5.15;;
57615;SDS011;43816;52.054;-9.494;2023-03-01T01:01:33;5.43;;;5.13;;
57615;SDS011;43816;52.054;-9.494;2023-03-01T01:01:43;5.40;;;5.10;;
57615;SDS011;43816;52.054;-9.494;2023-03-01T01:01:54;5.37;;;5.07;;
57615;SDS011;43816;52.054;-9.494;2023-03-01T01:02:04;5.53;;;5.20;;
57615;SDS011;43816;52.054;-9.494;2023-03-01T01:02:14;5.50;;;5.20;;
57615;SDS011;43816;52.054;-9.494;2023-03-01T01:02:25;5.67;;;5.27;;
57615;SDS011;43816;52.054;-9.494;2023-03-01T01:02:35;5.28;;;4.97;;
57615;SDS011;43816;52.054;-9.494;2023-03-01T01:02:46;5.57;;;5.17;;
57615;SDS011;43816;52.054;-9.494;2023-03-01T01:02:56;5.70;;;5.30;;
57615;SDS011;43816;52.054;-9.494;2023-03-01T01:03:06;5.50;;;5.10;;
57615;SDS011;43816;52.054;-9.494;2023-03-01T01:03:17;5.40;;;5.00;;
57615;SDS011;43816;52.054;-9.494;2023-03-01T01:03:27;5.15;;;4.85;;
57615;SDS011;43816;52.054;-9.494;2023-03-01T01:03:37;5.70;;;5.30;;
57615;SDS011;43816;52.054;-9.494;2023-03-01T01:03:55;5.93;;;5.43;;
57615;SDS011;43816;52.054;-9.494;2023-03-01T01:04:08;5.97;;;5.55;;
57615;SDS011;43816;52.054;-9.494;2023-03-01T01:04:21;5.75;;;5.28;;
57615;SDS011;43816;52.054;-9.494;2023-03-01T01:04:32;5.50;;;5.10;;
57615;SDS011;43816;52.054;-9.494;2023-03-01T01:04:42;5.50;;;5.10;;
57615;SDS011;43816;52.054;-9.494;2023-03-01T01:04:52;5.60;;;5.20;;